createdAt,value
2023-04-21T00:00:51.404Z,28.7
2023-04-21T00:01:52.000Z,29.2
2023-04-21T00:02:52.731Z,29.4
2023-04-21T00:03:53.543Z,27.8
2023-04-21T00:04:54.299Z,28.8
2023-04-21T00:05:55.060Z,28.9
2023-04-21T00:06:55.655Z,28.8
2023-04-21T00:07:56.234Z,30.0
2023-04-21T00:08:56.851Z,29.8
2023-04-21T00:09:57.446Z,30.6
2023-04-21T00:10:58.042Z,28.4
2023-04-21T00:11:58.634Z,28.6
2023-04-21T00:12:59.229Z,30.2
2023-04-21T00:13:59.826Z,29.5
2023-04-21T00:15:00.422Z,29.8
2023-04-21T00:16:01.076Z,29.3
2023-04-21T00:17:01.672Z,29.5
2023-04-21T00:18:02.305Z,29.8
2023-04-21T00:19:02.858Z,29.3
2023-04-21T00:20:03.459Z,29.8
2023-04-21T00:21:04.054Z,30.1
2023-04-21T00:22:04.648Z,29.2
2023-04-21T00:23:05.244Z,29.7
2023-04-21T00:24:05.844Z,30.3
2023-04-21T00:25:06.440Z,31.0
2023-04-21T00:26:07.033Z,31.4
2023-04-21T00:27:07.649Z,31.2
2023-04-21T00:28:08.228Z,30.5
2023-04-21T00:29:08.826Z,30.4
2023-04-21T00:30:09.420Z,30.5
2023-04-21T00:31:10.036Z,29.7
2023-04-21T00:32:10.615Z,28.8
2023-04-21T00:33:11.213Z,28.5
2023-04-21T00:34:11.807Z,28.7
2023-04-21T00:35:12.402Z,29.0
2023-04-21T00:36:13.021Z,29.3
2023-04-21T00:37:13.631Z,29.3
2023-04-21T00:38:14.224Z,27.5
2023-04-21T00:39:14.822Z,29.4
2023-04-21T00:40:15.423Z,28.7
2023-04-21T00:41:16.013Z,27.8
2023-04-21T00:42:16.608Z,27.6
2023-04-21T00:43:17.227Z,27.8
2023-04-21T00:44:17.821Z,29.2
2023-04-21T00:45:18.426Z,27.2
2023-04-21T00:46:19.023Z,26.0
2023-04-21T00:47:19.653Z,27.3
2023-04-21T00:48:20.210Z,27.2
2023-04-21T00:49:20.999Z,27.4
2023-04-21T00:50:21.605Z,25.8
2023-04-21T00:51:22.190Z,26.0
2023-04-21T00:52:22.789Z,25.5
2023-04-21T00:53:23.386Z,25.6
2023-04-21T00:54:23.979Z,26.0
2023-04-21T00:55:24.574Z,25.7
2023-04-21T00:56:25.171Z,25.8
2023-04-21T00:57:25.774Z,25.4
2023-04-21T00:58:26.362Z,25.3
2023-04-21T00:59:26.953Z,24.5
2023-04-21T01:00:27.550Z,24.5
2023-04-21T01:01:28.219Z,25.3
2023-04-21T01:02:28.935Z,25.1
2023-04-21T01:03:29.708Z,24.9
2023-04-21T01:04:30.464Z,25.9
2023-04-21T01:05:31.094Z,24.8
2023-04-21T01:06:31.658Z,24.5
2023-04-21T01:07:32.261Z,24.6
2023-04-21T01:08:32.848Z,24.0
2023-04-21T01:09:33.444Z,25.0
2023-04-21T01:10:34.063Z,25.9
2023-04-21T01:11:34.651Z,24.8
2023-04-21T01:12:35.247Z,24.4
2023-04-21T01:13:35.842Z,24.6
2023-04-21T01:14:36.437Z,24.1
2023-04-21T01:15:37.035Z,23.8
2023-04-21T01:16:37.709Z,24.7
2023-04-21T01:17:38.288Z,24.4
2023-04-21T01:18:38.858Z,23.3
2023-04-21T01:19:39.467Z,24.1
2023-04-21T01:20:40.073Z,24.3
2023-04-21T01:21:40.680Z,24.3
2023-04-21T01:22:41.278Z,23.5
2023-04-21T01:23:41.872Z,23.9
2023-04-21T01:24:42.475Z,23.0
2023-04-21T01:25:43.066Z,23.9
2023-04-21T01:26:43.663Z,23.6
2023-04-21T01:27:44.256Z,23.8
2023-04-21T01:28:45.026Z,23.5
2023-04-21T01:29:45.534Z,22.5
2023-04-21T01:30:46.133Z,22.8
2023-04-21T01:31:46.790Z,22.5
2023-04-21T01:32:47.382Z,22.7
2023-04-21T01:33:47.950Z,23.1
2023-04-21T01:34:48.546Z,21.8
2023-04-21T01:35:49.165Z,21.4
2023-04-21T01:36:49.757Z,23.0
2023-04-21T01:37:50.382Z,21.9
2023-04-21T01:38:50.968Z,22.3
2023-04-21T01:39:51.560Z,21.5
2023-04-21T01:40:52.157Z,22.0
2023-04-21T01:41:52.751Z,21.9
2023-04-21T01:42:53.347Z,22.6
2023-04-21T01:43:53.943Z,22.7
2023-04-21T01:44:54.583Z,21.2
2023-04-21T01:45:55.160Z,22.1
2023-04-21T01:46:55.749Z,21.7
2023-04-21T01:47:56.371Z,21.8
2023-04-21T01:48:56.963Z,20.9
2023-04-21T01:49:57.552Z,21.3
2023-04-21T01:50:58.166Z,20.9
2023-04-21T01:51:58.764Z,21.0
2023-04-21T01:52:59.363Z,21.6
2023-04-21T01:53:59.953Z,21.6
2023-04-21T01:55:00.551Z,21.5
2023-04-21T01:56:01.153Z,20.8
2023-04-21T01:57:01.792Z,21.2
2023-04-21T01:58:02.364Z,20.4
2023-04-21T01:59:02.956Z,19.9
2023-04-21T02:00:03.543Z,21.2
2023-04-21T02:01:04.192Z,20.8
2023-04-21T02:02:04.875Z,20.9
2023-04-21T02:03:05.784Z,20.6
2023-04-21T02:04:06.339Z,20.9
2023-04-21T02:05:07.038Z,20.5
2023-04-21T02:06:07.648Z,20.8
2023-04-21T02:07:08.232Z,21.5
2023-04-21T02:08:08.833Z,21.6
2023-04-21T02:09:09.443Z,21.0
2023-04-21T02:10:10.042Z,19.6
2023-04-21T02:11:10.634Z,20.0
2023-04-21T02:12:11.248Z,21.5
2023-04-21T02:13:11.857Z,20.4
2023-04-21T02:14:12.439Z,19.9
2023-04-21T02:15:13.032Z,20.0
2023-04-21T02:16:14.349Z,19.4
2023-04-21T02:17:14.239Z,19.8
2023-04-21T02:18:15.022Z,20.2
2023-04-21T02:19:15.642Z,20.1
2023-04-21T02:20:16.233Z,20.3
2023-04-21T02:21:16.824Z,19.9
2023-04-21T02:22:17.424Z,20.2
2023-04-21T02:23:18.030Z,20.1
2023-04-21T02:24:18.613Z,20.2
2023-04-21T02:25:19.211Z,20.8
2023-04-21T02:26:19.800Z,19.2
2023-04-21T02:27:20.397Z,19.6
2023-04-21T02:28:20.991Z,19.4
2023-04-21T02:29:21.757Z,19.8
2023-04-21T02:30:22.360Z,20.0
2023-04-21T02:31:23.043Z,19.7
2023-04-21T02:32:26.236Z,19.4
2023-04-21T02:33:25.308Z,19.2
2023-04-21T02:34:25.855Z,19.9
2023-04-21T02:35:26.472Z,19.2
2023-04-21T02:36:27.078Z,18.8
2023-04-21T02:37:27.663Z,19.7
2023-04-21T02:38:28.260Z,19.3
2023-04-21T02:39:28.855Z,19.9
2023-04-21T02:40:29.495Z,18.2
2023-04-21T02:41:30.061Z,19.2
2023-04-21T02:42:30.642Z,19.6
2023-04-21T02:43:31.230Z,19.3
2023-04-21T02:44:31.829Z,20.1
2023-04-21T02:45:32.427Z,20.1
2023-04-21T02:46:33.075Z,19.2
2023-04-21T02:47:33.684Z,20.1
2023-04-21T02:48:34.291Z,19.0
2023-04-21T02:49:34.872Z,19.1
2023-04-21T02:50:35.475Z,17.9
2023-04-21T02:51:36.063Z,19.5
2023-04-21T02:52:36.684Z,19.5
2023-04-21T02:53:37.268Z,19.2
2023-04-21T02:54:37.863Z,20.6
2023-04-21T02:55:38.467Z,20.4
2023-04-21T02:56:39.069Z,19.9
2023-04-21T02:57:39.679Z,19.3
2023-04-21T02:58:40.265Z,19.9
2023-04-21T02:59:40.864Z,19.5
2023-04-21T03:00:41.571Z,20.0
2023-04-21T03:01:42.204Z,20.9
2023-04-21T03:02:43.039Z,20.1
2023-04-21T03:03:43.796Z,21.2
2023-04-21T03:04:44.379Z,20.1
2023-04-21T03:05:44.987Z,19.9
2023-04-21T03:06:45.570Z,21.0
2023-04-21T03:07:46.176Z,20.5
2023-04-21T03:08:46.759Z,20.6
2023-04-21T03:09:47.372Z,20.6
2023-04-21T03:10:47.966Z,21.3
2023-04-21T03:11:48.566Z,20.9
2023-04-21T03:12:49.161Z,20.2
2023-04-21T03:13:49.778Z,21.6
2023-04-21T03:14:50.373Z,20.5
2023-04-21T03:15:50.985Z,22.2
2023-04-21T03:16:51.623Z,20.4
2023-04-21T03:17:52.359Z,22.9
2023-04-21T03:18:52.916Z,21.8
2023-04-21T03:19:53.517Z,21.6
2023-04-21T03:20:54.105Z,22.3
2023-04-21T03:21:54.703Z,22.4
2023-04-21T03:22:55.299Z,22.1
2023-04-21T03:23:55.902Z,22.4
2023-04-21T03:24:56.506Z,22.3
2023-04-21T03:25:57.182Z,21.4
2023-04-21T03:26:57.736Z,21.0
2023-04-21T03:27:58.345Z,21.2
2023-04-21T03:28:58.941Z,21.6
2023-04-21T03:29:59.536Z,21.0
2023-04-21T03:31:00.182Z,20.5
2023-04-21T03:32:00.763Z,20.9
2023-04-21T03:33:01.410Z,21.2
2023-04-21T03:34:02.015Z,21.1
2023-04-21T03:35:02.627Z,21.8
2023-04-21T03:36:03.214Z,20.8
2023-04-21T03:37:03.807Z,22.1
2023-04-21T03:38:04.463Z,21.0
2023-04-21T03:39:18.771Z,22.3
2023-04-21T03:40:06.612Z,21.5
2023-04-21T03:41:07.241Z,21.0
2023-04-21T03:42:07.832Z,20.8
2023-04-21T03:43:08.429Z,21.2
2023-04-21T03:44:09.028Z,20.2
2023-04-21T03:45:09.624Z,21.0
2023-04-21T03:46:10.273Z,22.0
2023-04-21T03:47:10.820Z,20.3
2023-04-21T03:48:11.481Z,20.7
2023-04-21T03:49:12.086Z,21.0
2023-04-21T03:50:12.688Z,20.7
2023-04-21T03:51:13.277Z,21.1
2023-04-21T03:52:13.875Z,20.5
2023-04-21T03:53:14.474Z,20.9
2023-04-21T03:54:15.100Z,21.4
2023-04-21T03:55:15.701Z,21.0
2023-04-21T03:56:16.298Z,20.3
2023-04-21T03:57:16.902Z,21.4
2023-04-21T03:58:17.507Z,22.0
2023-04-21T03:59:18.391Z,21.3
2023-04-21T04:00:19.180Z,21.0
2023-04-21T04:01:19.793Z,21.8
2023-04-21T04:02:20.504Z,22.5
2023-04-21T04:03:23.401Z,22.5
2023-04-21T04:04:22.937Z,21.1
2023-04-21T04:05:23.798Z,22.1
2023-04-21T04:06:24.382Z,21.9
2023-04-21T04:07:24.973Z,23.0
2023-04-21T04:08:25.581Z,21.3
2023-04-21T04:09:26.176Z,21.8
2023-04-21T04:10:26.774Z,22.4
2023-04-21T04:11:27.388Z,22.1
2023-04-21T04:12:27.980Z,21.9
2023-04-21T04:13:28.570Z,22.9
2023-04-21T04:14:29.170Z,22.9
2023-04-21T04:15:29.764Z,22.4
2023-04-21T04:16:30.387Z,21.5
2023-04-21T04:17:30.994Z,22.0
2023-04-21T04:18:31.565Z,21.6
2023-04-21T04:19:32.185Z,22.6
2023-04-21T04:20:32.785Z,22.3
2023-04-21T04:21:33.401Z,21.7
2023-04-21T04:22:34.031Z,21.5
2023-04-21T04:23:34.619Z,22.5
2023-04-21T04:24:35.238Z,21.9
2023-04-21T04:25:35.867Z,22.8
2023-04-21T04:26:36.437Z,22.6
2023-04-21T04:27:37.034Z,22.1
2023-04-21T04:28:37.649Z,22.1
2023-04-21T04:29:38.279Z,23.3
2023-04-21T04:30:38.881Z,22.7
2023-04-21T04:31:39.547Z,21.7
2023-04-21T04:32:40.207Z,22.0
2023-04-21T04:33:40.804Z,21.6
2023-04-21T04:34:41.400Z,22.2
2023-04-21T04:35:41.996Z,21.4
2023-04-21T04:36:42.595Z,22.3
2023-04-21T04:37:43.201Z,21.6
2023-04-21T04:38:43.795Z,21.1
2023-04-21T04:39:44.413Z,20.5
2023-04-21T04:40:45.041Z,20.5
2023-04-21T04:41:45.636Z,20.8
2023-04-21T04:42:46.239Z,21.3
2023-04-21T04:43:46.835Z,20.6
2023-04-21T04:44:47.439Z,20.7
2023-04-21T04:45:48.034Z,19.3
2023-04-21T04:46:48.678Z,19.8
2023-04-21T04:47:49.287Z,20.0
2023-04-21T04:48:49.849Z,20.0
2023-04-21T04:49:50.451Z,19.5
2023-04-21T04:50:51.050Z,21.0
2023-04-21T04:51:51.650Z,18.5
2023-04-21T04:52:52.251Z,19.8
2023-04-21T04:53:52.854Z,18.8
2023-04-21T04:54:53.465Z,18.3
2023-04-21T04:55:54.057Z,19.2
2023-04-21T04:56:54.661Z,19.3
2023-04-21T04:57:55.277Z,18.8
2023-04-21T04:58:55.879Z,19.3
2023-04-21T04:59:56.475Z,18.9
2023-04-21T05:00:57.076Z,19.1
2023-04-21T05:01:57.763Z,18.5
2023-04-21T05:02:58.467Z,18.2
2023-04-21T05:03:59.277Z,17.9
2023-04-21T05:04:59.973Z,18.6
2023-04-21T05:06:00.571Z,18.2
2023-04-21T05:07:01.173Z,18.5
2023-04-21T05:08:01.798Z,19.0
2023-04-21T05:09:02.392Z,17.4
2023-04-21T05:10:03.019Z,18.8
2023-04-21T05:11:03.611Z,19.6
2023-04-21T05:12:04.268Z,18.2
2023-04-21T05:13:04.831Z,17.4
2023-04-21T05:14:05.434Z,18.4
2023-04-21T05:15:06.029Z,18.3
2023-04-21T05:16:06.701Z,17.8
2023-04-21T05:17:07.250Z,17.4
2023-04-21T05:18:07.930Z,17.9
2023-04-21T05:19:08.478Z,16.6
2023-04-21T05:20:09.069Z,17.5
2023-04-21T05:21:09.692Z,17.1
2023-04-21T05:22:10.312Z,17.4
2023-04-21T05:23:10.909Z,17.1
2023-04-21T05:24:11.508Z,16.8
2023-04-21T05:25:12.118Z,17.2
2023-04-21T05:26:12.713Z,18.1
2023-04-21T05:27:13.328Z,16.5
2023-04-21T05:28:13.935Z,17.2
2023-04-21T05:29:14.538Z,17.5
2023-04-21T05:30:15.176Z,17.0
2023-04-21T05:31:15.770Z,16.5
2023-04-21T05:32:16.404Z,15.8
2023-04-21T05:33:17.030Z,15.5
2023-04-21T05:34:17.731Z,16.6
2023-04-21T05:35:18.391Z,15.7
2023-04-21T05:36:18.993Z,16.6
2023-04-21T05:37:19.596Z,14.6
2023-04-21T05:38:20.211Z,15.5
2023-04-21T05:39:20.825Z,14.2
2023-04-21T05:40:21.447Z,14.2
2023-04-21T05:41:22.046Z,15.2
2023-04-21T05:42:22.660Z,14.7
2023-04-21T05:43:23.264Z,14.2
2023-04-21T05:44:23.850Z,16.3
2023-04-21T05:45:24.447Z,14.6
2023-04-21T05:46:25.142Z,14.2
2023-04-21T05:47:25.748Z,14.3
2023-04-21T05:48:26.343Z,14.5
2023-04-21T05:49:26.954Z,14.4
2023-04-21T05:50:27.596Z,14.5
2023-04-21T05:51:28.191Z,13.8
2023-04-21T05:52:28.826Z,14.2
2023-04-21T05:53:29.413Z,14.4
2023-04-21T05:54:30.024Z,14.4
2023-04-21T05:55:30.615Z,14.5
2023-04-21T05:56:31.222Z,14.3
2023-04-21T05:57:31.817Z,14.8
2023-04-21T05:58:32.417Z,14.0
2023-04-21T05:59:33.014Z,12.8
2023-04-21T06:00:33.618Z,14.2
2023-04-21T06:01:34.227Z,13.5
2023-04-21T06:02:34.965Z,13.6
2023-04-21T06:03:35.820Z,13.2
2023-04-21T06:04:36.499Z,12.1
2023-04-21T06:05:37.238Z,13.6
2023-04-21T06:06:37.871Z,13.5
2023-04-21T06:07:38.489Z,12.3
2023-04-21T06:08:39.080Z,12.6
2023-04-21T06:09:39.683Z,13.0
2023-04-21T06:10:40.285Z,12.5
2023-04-21T06:11:40.886Z,10.9
2023-04-21T06:12:41.488Z,10.5
2023-04-21T06:13:43.569Z,11.4
2023-04-21T06:14:43.703Z,10.6
2023-04-21T06:15:44.370Z,11.2
2023-04-21T06:16:44.997Z,10.9
2023-04-21T06:17:45.617Z,10.2
2023-04-21T06:18:46.177Z,9.8
2023-04-21T06:19:46.807Z,10.7
2023-04-21T06:20:47.402Z,10.2
2023-04-21T06:21:48.002Z,10.2
2023-04-21T06:22:48.605Z,10.3
2023-04-21T06:23:49.207Z,10.2
2023-04-21T06:24:49.830Z,10.5
2023-04-21T06:25:50.414Z,10.4
2023-04-21T06:26:51.016Z,10.4
2023-04-21T06:27:51.615Z,9.9
2023-04-21T06:28:52.221Z,10.2
2023-04-21T06:29:52.822Z,10.1
2023-04-21T06:30:53.424Z,9.7
2023-04-21T06:31:54.064Z,10.4
2023-04-21T06:32:54.672Z,10.8
2023-04-21T06:33:55.260Z,10.5
2023-04-21T06:34:55.860Z,10.3
2023-04-21T06:35:56.494Z,9.6
2023-04-21T06:36:57.079Z,9.6
2023-04-21T06:37:57.682Z,9.6
2023-04-21T06:38:58.282Z,9.6
2023-04-21T06:39:58.884Z,8.8
2023-04-21T06:40:59.579Z,9.3
2023-04-21T06:42:00.205Z,9.7
2023-04-21T06:43:00.803Z,9.4
2023-04-21T06:44:01.402Z,9.9
2023-04-21T06:45:02.022Z,9.6
2023-04-21T06:46:02.630Z,9.7
2023-04-21T06:47:03.257Z,9.3
2023-04-21T06:48:03.880Z,9.5
2023-04-21T06:49:04.452Z,8.9
2023-04-21T06:50:05.055Z,9.1
2023-04-21T06:51:05.658Z,9.6
2023-04-21T06:52:06.275Z,9.5
2023-04-21T06:53:06.879Z,9.1
2023-04-21T06:54:07.491Z,8.8
2023-04-21T06:55:08.110Z,10.2
2023-04-21T06:56:08.696Z,9.4
2023-04-21T06:57:09.309Z,9.4
2023-04-21T06:58:09.898Z,9.0
2023-04-21T06:59:10.500Z,8.5
2023-04-21T07:00:11.099Z,9.5
2023-04-21T07:01:11.772Z,9.1
2023-04-21T07:02:12.437Z,8.2
2023-04-21T07:03:13.156Z,9.3
2023-04-21T07:04:13.904Z,8.2
2023-04-21T07:05:14.483Z,8.9
2023-04-21T07:06:15.095Z,9.1
2023-04-21T07:07:15.698Z,9.2
2023-04-21T07:08:16.308Z,8.8
2023-04-21T07:09:17.108Z,8.7
2023-04-21T07:10:17.763Z,8.8
2023-04-21T07:11:18.365Z,8.7
2023-04-21T07:12:18.968Z,8.4
2023-04-21T07:13:19.585Z,8.7
2023-04-21T07:14:20.190Z,8.8
2023-04-21T07:15:20.807Z,8.7
2023-04-21T07:16:21.421Z,8.5
2023-04-21T07:17:22.230Z,8.3
2023-04-21T07:18:22.832Z,7.8
2023-04-21T07:19:23.433Z,8.9
2023-04-21T07:20:24.033Z,8.5
2023-04-21T07:21:24.644Z,8.0
2023-04-21T07:22:25.259Z,8.0
2023-04-21T07:23:25.859Z,8.4
2023-04-21T07:24:26.464Z,8.4
2023-04-21T07:25:27.070Z,8.4
2023-04-21T07:26:27.662Z,8.8
2023-04-21T07:27:28.268Z,9.0
2023-04-21T07:28:28.886Z,8.2
2023-04-21T07:29:29.486Z,8.2
2023-04-21T07:30:30.085Z,8.9
2023-04-21T07:31:30.752Z,8.4
2023-04-21T07:32:31.406Z,8.5
2023-04-21T07:33:31.999Z,8.2
2023-04-21T07:34:32.597Z,8.6
2023-04-21T07:35:33.194Z,8.3
2023-04-21T07:36:33.796Z,8.7
2023-04-21T07:37:34.440Z,8.4
2023-04-21T07:38:35.038Z,8.7
2023-04-21T07:39:35.638Z,8.6
2023-04-21T07:40:36.240Z,8.0
2023-04-21T07:41:36.845Z,8.6
2023-04-21T07:42:37.443Z,8.9
2023-04-21T07:43:38.054Z,9.0
2023-04-21T07:44:38.648Z,8.8
2023-04-21T07:45:39.248Z,8.9
2023-04-21T07:46:39.929Z,9.0
2023-04-21T07:47:40.574Z,9.2
2023-04-21T07:48:41.156Z,8.4
2023-04-21T07:49:41.768Z,8.1
2023-04-21T07:50:42.360Z,8.9
2023-04-21T07:51:42.961Z,8.8
2023-04-21T07:52:43.578Z,7.9
2023-04-21T07:53:44.194Z,8.5
2023-04-21T07:54:44.783Z,8.2
2023-04-21T07:55:45.388Z,7.6
2023-04-21T07:56:46.005Z,8.0
2023-04-21T07:57:46.627Z,7.5
2023-04-21T07:58:47.231Z,8.3
2023-04-21T07:59:47.826Z,7.4
2023-04-21T08:00:48.428Z,8.4
2023-04-21T08:01:49.046Z,8.1
2023-04-21T08:02:49.977Z,8.0
2023-04-21T08:03:50.526Z,8.8
2023-04-21T08:04:51.188Z,8.1
2023-04-21T08:05:51.942Z,8.0
2023-04-21T08:06:52.745Z,7.9
2023-04-21T08:07:53.456Z,7.7
2023-04-21T08:08:54.062Z,7.6
2023-04-21T08:09:54.662Z,7.5
2023-04-21T08:10:55.265Z,7.7
2023-04-21T08:11:55.865Z,7.9
2023-04-21T08:12:56.495Z,8.1
2023-04-21T08:13:57.070Z,8.0
2023-04-21T08:14:57.669Z,7.6
2023-04-21T08:15:58.377Z,7.9
2023-04-21T08:16:59.106Z,7.8
2023-04-21T08:17:59.582Z,7.9
2023-04-21T08:19:00.150Z,8.1
2023-04-21T08:20:00.743Z,7.8
2023-04-21T08:21:01.585Z,8.3
2023-04-21T08:22:02.286Z,8.0
2023-04-21T08:23:03.150Z,7.8
2023-04-21T08:24:03.675Z,7.7
2023-04-21T08:25:04.068Z,8.2
2023-04-21T08:26:04.669Z,8.3
2023-04-21T08:27:05.289Z,8.1
2023-04-21T08:28:05.888Z,8.0
2023-04-21T08:29:06.509Z,8.5
2023-04-21T08:30:07.145Z,8.7
2023-04-21T08:31:07.753Z,7.9
2023-04-21T08:32:08.387Z,8.9
2023-04-21T08:33:09.023Z,7.9
2023-04-21T08:34:09.560Z,7.6
2023-04-21T08:35:10.158Z,8.4
2023-04-21T08:36:21.900Z,8.0
2023-04-21T08:37:12.417Z,8.0
2023-04-21T08:38:13.003Z,7.5
2023-04-21T08:39:13.643Z,7.5
2023-04-21T08:40:14.207Z,7.4
2023-04-21T08:41:14.812Z,7.9
2023-04-21T08:42:15.415Z,8.1
2023-04-21T08:43:16.052Z,7.4
2023-04-21T08:44:16.671Z,8.2
2023-04-21T08:45:17.279Z,8.1
2023-04-21T08:46:17.882Z,8.5
2023-04-21T08:47:18.467Z,8.3
2023-04-21T08:48:19.065Z,7.6
2023-04-21T08:49:19.848Z,8.1
2023-04-21T08:50:20.285Z,7.6
2023-04-21T08:51:20.884Z,7.4
2023-04-21T08:52:21.498Z,7.1
2023-04-21T08:53:22.109Z,7.6
2023-04-21T08:54:22.723Z,7.6
2023-04-21T08:55:23.312Z,7.6
2023-04-21T08:56:23.912Z,7.1
2023-04-21T08:57:24.517Z,7.5
2023-04-21T08:58:25.115Z,7.5
2023-04-21T08:59:25.717Z,6.7
2023-04-21T09:00:26.324Z,7.5
2023-04-21T09:01:26.940Z,7.0
2023-04-21T09:02:27.673Z,7.0
2023-04-21T09:03:28.507Z,7.2
2023-04-21T09:04:29.328Z,6.7
2023-04-21T09:05:30.042Z,7.6
2023-04-21T09:06:30.382Z,6.6
2023-04-21T09:07:30.986Z,6.3
2023-04-21T09:08:31.593Z,7.2
2023-04-21T09:09:32.189Z,7.1
2023-04-21T09:10:32.788Z,7.3
2023-04-21T09:11:33.414Z,7.4
2023-04-21T09:12:34.042Z,7.7
2023-04-21T09:13:34.633Z,7.8
2023-04-21T09:14:35.240Z,6.8
2023-04-21T09:15:35.835Z,6.4
2023-04-21T09:16:36.478Z,7.3
2023-04-21T09:17:37.176Z,6.7
2023-04-21T09:18:37.778Z,6.9
2023-04-21T09:19:38.393Z,6.5
2023-04-21T09:20:38.994Z,6.7
2023-04-21T09:21:39.592Z,7.0
2023-04-21T09:22:40.197Z,7.4
2023-04-21T09:23:40.822Z,7.7
2023-04-21T09:24:41.422Z,6.7
2023-04-21T09:25:42.023Z,7.2
2023-04-21T09:26:42.638Z,7.0
2023-04-21T09:27:43.231Z,6.7
2023-04-21T09:28:43.849Z,6.6
2023-04-21T09:29:44.437Z,6.9
2023-04-21T09:30:45.072Z,6.4
2023-04-21T09:31:45.694Z,6.7
2023-04-21T09:32:46.367Z,6.7
2023-04-21T09:33:57.131Z,7.0
2023-04-21T09:34:48.539Z,6.8
2023-04-21T09:35:49.143Z,6.9
2023-04-21T09:36:49.751Z,6.8
2023-04-21T09:37:50.343Z,6.9
2023-04-21T09:38:57.593Z,6.9
2023-04-21T09:40:03.567Z,6.6
2023-04-21T09:40:54.136Z,6.5
2023-04-21T09:41:54.737Z,6.6
2023-04-21T09:42:55.346Z,6.4
2023-04-21T09:43:55.952Z,6.7
2023-04-21T09:45:10.874Z,7.3
2023-04-21T09:45:58.196Z,6.4
2023-04-21T09:46:58.775Z,6.8
2023-04-21T09:47:59.492Z,7.2
2023-04-21T09:49:00.182Z,7.1
2023-04-21T09:50:00.764Z,6.8
2023-04-21T09:51:28.163Z,6.7
2023-04-21T09:52:14.774Z,6.8
2023-04-21T09:53:04.396Z,6.3
2023-04-21T09:54:05.701Z,6.6
2023-04-21T09:55:05.690Z,7.2
2023-04-21T09:56:06.283Z,7.1
2023-04-21T09:57:06.889Z,7.4
2023-04-21T09:58:07.490Z,6.6
2023-04-21T09:59:08.092Z,6.3
2023-04-21T10:00:08.697Z,6.4
2023-04-21T10:01:09.341Z,6.5
2023-04-21T10:02:10.102Z,6.5
2023-04-21T10:03:10.780Z,6.6
2023-04-21T10:04:11.756Z,6.1
2023-04-21T10:05:12.702Z,6.4
2023-04-21T10:06:13.319Z,6.2
2023-04-21T10:07:13.848Z,6.0
2023-04-21T10:08:14.456Z,6.0
2023-04-21T10:09:15.080Z,6.4
2023-04-21T10:10:15.674Z,6.1
2023-04-21T10:11:16.270Z,6.0
2023-04-21T10:12:16.876Z,6.5
2023-04-21T10:13:17.476Z,5.8
2023-04-21T10:14:18.233Z,5.9
2023-04-21T10:15:18.919Z,6.2
2023-04-21T10:16:19.554Z,6.1
2023-04-21T10:17:20.143Z,5.9
2023-04-21T10:18:20.718Z,6.1
2023-04-21T10:19:21.468Z,5.0
2023-04-21T10:20:22.089Z,6.1
2023-04-21T10:21:22.701Z,5.9
2023-04-21T10:22:23.296Z,5.8
2023-04-21T10:23:23.954Z,5.0
2023-04-21T10:24:24.557Z,5.8
2023-04-21T10:25:25.154Z,5.4
2023-04-21T10:26:25.752Z,5.6
2023-04-21T10:27:26.356Z,5.8
2023-04-21T10:28:26.957Z,4.9
2023-04-21T10:29:27.562Z,5.7
2023-04-21T10:30:28.162Z,5.2
2023-04-21T10:31:28.849Z,5.1
2023-04-21T10:32:29.432Z,5.1
2023-04-21T10:33:30.028Z,5.2
2023-04-21T10:34:30.636Z,4.8
2023-04-21T10:35:31.235Z,5.2
2023-04-21T10:36:31.835Z,4.9
2023-04-21T10:37:32.431Z,5.0
2023-04-21T10:38:33.052Z,4.6
2023-04-21T10:39:33.653Z,5.5
2023-04-21T10:40:43.755Z,5.0
2023-04-21T10:41:35.886Z,5.2
2023-04-21T10:42:36.525Z,4.7
2023-04-21T10:43:37.090Z,4.5
2023-04-21T10:44:37.694Z,4.8
2023-04-21T10:45:38.317Z,4.1
2023-04-21T10:46:38.989Z,4.7
2023-04-21T10:47:39.570Z,4.6
2023-04-21T10:48:40.143Z,4.3
2023-04-21T10:49:40.737Z,4.1
2023-04-21T10:50:41.341Z,4.1
2023-04-21T10:51:41.943Z,4.6
2023-04-21T10:52:42.544Z,4.4
2023-04-21T10:53:43.148Z,3.9
2023-04-21T10:54:43.749Z,3.9
2023-04-21T10:55:44.370Z,4.4
2023-04-21T10:56:44.969Z,3.6
2023-04-21T10:57:45.578Z,4.4
2023-04-21T10:58:46.171Z,3.8
2023-04-21T10:59:46.799Z,4.1
2023-04-21T11:00:47.503Z,3.6
2023-04-21T11:01:48.094Z,3.7
2023-04-21T11:02:48.851Z,3.7
2023-04-21T11:03:49.525Z,3.5
2023-04-21T11:04:50.550Z,3.1
2023-04-21T11:05:50.849Z,3.4
2023-04-21T11:06:51.451Z,3.7
2023-04-21T11:07:52.046Z,3.6
2023-04-21T11:08:52.668Z,3.1
2023-04-21T11:09:53.271Z,3.9
2023-04-21T11:10:53.874Z,3.9
2023-04-21T11:11:54.490Z,3.4
2023-04-21T11:12:55.074Z,3.0
2023-04-21T11:13:55.693Z,3.4
2023-04-21T11:14:56.295Z,3.7
2023-04-21T11:15:56.917Z,3.5
2023-04-21T11:16:57.555Z,3.4
2023-04-21T11:17:58.227Z,3.7
2023-04-21T11:18:58.785Z,4.1
2023-04-21T11:19:59.383Z,3.7
2023-04-21T11:21:00.005Z,3.5
2023-04-21T11:22:00.631Z,3.7
2023-04-21T11:23:01.210Z,4.1
2023-04-21T11:24:01.820Z,3.0
2023-04-21T11:25:02.420Z,3.2
2023-04-21T11:26:03.015Z,3.2
2023-04-21T11:27:03.683Z,3.4
2023-04-21T11:28:04.302Z,3.6
2023-04-21T11:29:04.905Z,2.8
2023-04-21T11:30:05.507Z,3.1
2023-04-21T11:31:06.196Z,3.6
2023-04-21T11:32:06.741Z,2.7
2023-04-21T11:33:07.385Z,3.6
2023-04-21T11:34:07.944Z,3.3
2023-04-21T11:35:08.545Z,3.3
2023-04-21T11:36:09.151Z,3.2
2023-04-21T11:37:09.776Z,3.1
2023-04-21T11:38:10.388Z,3.1
2023-04-21T11:39:10.993Z,3.5
2023-04-21T11:40:11.608Z,3.2
2023-04-21T11:41:12.297Z,3.0
2023-04-21T11:42:12.952Z,2.7
2023-04-21T11:43:13.549Z,2.7
2023-04-21T11:44:14.169Z,2.9
2023-04-21T11:45:14.775Z,3.3
2023-04-21T11:46:15.412Z,3.7
2023-04-21T11:47:16.035Z,3.2
2023-04-21T11:48:16.605Z,3.1
2023-04-21T11:49:17.254Z,3.0
2023-04-21T11:50:17.856Z,3.0
2023-04-21T11:51:21.371Z,2.9
2023-04-21T11:52:19.090Z,3.2
2023-04-21T11:53:19.751Z,3.3
2023-04-21T11:54:20.358Z,3.2
2023-04-21T11:55:20.954Z,3.1
2023-04-21T11:56:21.562Z,3.1
2023-04-21T11:57:22.159Z,3.5
2023-04-21T11:58:22.759Z,3.3
2023-04-21T11:59:25.550Z,2.8
2023-04-21T12:00:24.966Z,2.9
2023-04-21T12:01:25.586Z,3.2
2023-04-21T12:02:26.442Z,2.8
2023-04-21T12:03:27.353Z,2.7
2023-04-21T12:04:28.189Z,2.6
2023-04-21T12:05:28.862Z,3.2
2023-04-21T12:06:29.445Z,3.0
2023-04-21T12:07:30.045Z,3.2
2023-04-21T12:08:30.647Z,2.6
2023-04-21T12:09:31.245Z,2.8
2023-04-21T12:10:31.862Z,3.4
2023-04-21T12:11:32.474Z,2.6
2023-04-21T12:12:35.766Z,3.5
2023-04-21T12:13:34.671Z,3.2
2023-04-21T12:14:35.264Z,3.2
2023-04-21T12:15:35.862Z,3.2
2023-04-21T12:16:36.518Z,2.5
2023-04-21T12:17:37.129Z,3.1
2023-04-21T12:18:37.717Z,2.6
2023-04-21T12:19:38.317Z,2.8
2023-04-21T12:20:38.944Z,2.7
2023-04-21T12:21:39.550Z,2.8
2023-04-21T12:22:40.147Z,2.8
2023-04-21T12:23:40.759Z,2.5
2023-04-21T12:24:41.355Z,2.5
2023-04-21T12:25:41.952Z,3.1
2023-04-21T12:26:42.553Z,2.6
2023-04-21T12:27:43.154Z,2.9
2023-04-21T12:28:43.759Z,3.1
2023-04-21T12:29:44.363Z,3.1
2023-04-21T12:30:44.989Z,2.5
2023-04-21T12:31:45.665Z,3.0
2023-04-21T12:32:46.262Z,2.8
2023-04-21T12:33:46.981Z,2.9
2023-04-21T12:34:47.590Z,3.1
2023-04-21T12:35:48.202Z,2.6
2023-04-21T12:36:48.798Z,3.3
2023-04-21T12:37:49.418Z,2.9
2023-04-21T12:38:50.042Z,2.8
2023-04-21T12:39:50.628Z,2.7
2023-04-21T12:40:51.231Z,2.4
2023-04-21T12:41:51.840Z,2.8
2023-04-21T12:42:52.453Z,2.8
2023-04-21T12:43:53.057Z,2.7
2023-04-21T12:44:53.674Z,3.5
2023-04-21T12:45:54.298Z,2.7
2023-04-21T12:46:54.869Z,2.6
2023-04-21T12:47:55.537Z,2.5
2023-04-21T12:48:56.111Z,2.7
2023-04-21T12:49:56.696Z,2.7
2023-04-21T12:50:57.322Z,3.2
2023-04-21T12:51:57.922Z,3.2
2023-04-21T12:52:58.526Z,3.6
2023-04-21T12:53:59.125Z,2.6
2023-04-21T12:54:59.810Z,2.4
2023-04-21T12:56:04.478Z,2.6
2023-04-21T12:57:00.980Z,2.7
2023-04-21T12:58:01.580Z,2.7
2023-04-21T12:59:02.170Z,3.0
2023-04-21T13:00:02.770Z,2.2
2023-04-21T13:01:03.411Z,2.5
2023-04-21T13:02:04.087Z,3.0
2023-04-21T13:03:04.850Z,2.9
2023-04-21T13:04:06.067Z,2.6
2023-04-21T13:05:06.240Z,3.0
2023-04-21T13:06:06.854Z,2.6
2023-04-21T13:07:07.457Z,2.8
2023-04-21T13:08:08.064Z,2.5
2023-04-21T13:09:08.681Z,3.0
2023-04-21T13:10:09.284Z,2.9
2023-04-21T13:11:09.884Z,2.8
2023-04-21T13:12:10.496Z,2.6
2023-04-21T13:13:11.117Z,2.9
2023-04-21T13:14:11.738Z,3.0
2023-04-21T13:15:12.346Z,3.5
2023-04-21T13:16:12.984Z,2.8
2023-04-21T13:17:13.646Z,3.2
2023-04-21T13:18:14.221Z,2.6
2023-04-21T13:19:14.826Z,2.8
2023-04-21T13:20:15.451Z,3.6
2023-04-21T13:21:16.051Z,2.6
2023-04-21T13:22:16.668Z,2.9
2023-04-21T13:23:17.276Z,2.4
2023-04-21T13:24:17.872Z,3.0
2023-04-21T13:25:18.476Z,2.8
2023-04-21T13:26:19.076Z,3.2
2023-04-21T13:27:19.683Z,2.6
2023-04-21T13:28:20.283Z,3.0
2023-04-21T13:29:20.910Z,3.1
2023-04-21T13:30:21.512Z,3.1
2023-04-21T13:31:22.144Z,2.7
2023-04-21T13:32:22.754Z,3.0
2023-04-21T13:33:23.324Z,3.2
2023-04-21T13:34:23.942Z,3.0
2023-04-21T13:35:24.552Z,2.4
2023-04-21T13:36:25.172Z,3.1
2023-04-21T13:37:25.799Z,2.4
2023-04-21T13:38:26.401Z,3.1
2023-04-21T13:39:27.007Z,2.9
2023-04-21T13:40:27.607Z,2.8
2023-04-21T13:41:28.222Z,3.1